Aeroporto :
LOGIN :

Iscrizione | Disclaimer

   EN    FR    IT 

 










Sommario :    VFR   VFR Marginale   IFR   IFR Intensivo   IFR Molto Intensivo
Visibilità : 
Base nubi : 
>= 8 km
>= 3000ft
5 / 8 km
1000 / 3000 ft
1500m / 5 km
500 / 1000 ft
800 / 1500m
200 / 500 ft
< 800m
< 200 ft
Simboli :   Temporali  Nebbia  Neve Forte  Precipitazioni Forti  Vento > 20 kt
SIGMETs :   Varie  Temporali  Ghiacco  Turbolenza  Onda orograficha  Ceneri Vulcaniche






- Altitudine del aeroporto : 146 ft
- Codice IATA : RKE


EKRK - Roskilde Tune

ULTIMO METAR :
  • 212220Z AUTO 29017KT 9999 BKN015/// 06/04 Q1028

METARs OBSOLETI :
  • 212150Z AUTO 28018KT 9999 FEW012/// 06/04 Q1028
  • 212120Z AUTO 27018KT 9999 FEW012/// 06/04 Q1028
  • 212050Z AUTO 27016KT 9999 BKN010/// 07/05 Q1028
  • 212020Z AUTO 27015KT 9999 BKN010/// 06/05 Q1028
  • 211950Z AUTO 27013KT 9999 BKN010/// 07/05 Q1029

TAF TAF EKRK
Valido dal 21 a 21 ore il 22 a 06 ore UTC


212022Z 2121/2206 28015KT 9999 SCT020
TEMPO 2121/2122 BKN012



MetMap, La meteo Aeronautica in un colpo d'occhio ! - Copyright ORBIFLY Dicembre 2007 - Disclaimer

ORBIFLY MET'MAP TEAM :

Programmazione e sviluppo : Alexandra Zaïnal
Concezione : Baudouin d'Aumeries
Aiuto per la programmazione : Marc-Olivier Méhu
Supporto tecnico e logistico : Manuel Goepfert
Aiuto per la traduzione : Arnaldo La Scala

Contatto : metmap@orbifly.com




FONTI E CREDITI :

   NOAA